Sand Springs, MT (59077)

1:16 AM MDT on September 05, 2015 (GMT -0600)
Union Creek | | Change Station
CLOSE
Current Station
Personal Weather Station
Location: Montana, MT
Elevation: 2910 ft
Nearby Weather Stations
Active Advisory: Lake Wind Advisory

Elev 2910 ft 47.26 °N, 107.56 °W | Updated 37 seconds ago

Overcast
Overcast
52.4 °F
Feels Like 52.4 °F
N
13.0
Wind Variable Wind from East
Gusts 23.0 mph

Today
High -- | Low -- °F
--% Chance of Precip.
Yesterday
High -- | Low -- °F
Precip. -- in
6:33 AM 7:41 PM
Waning Gibbous, 51% visible
Pressure 29.79 in
Visibility 10.0 miles
Clouds Few 3900 ft
Scattered Clouds 5000 ft
Dew Point 49 °F
Humidity 89%
Rainfall 0.03 in
Snow Depth Not available.
UV 0 out of 12
Pollen 9.60 out of 12
Air Quality Not available.
Flu Activity Not available.
METAR KMLS 050653Z AUTO 02010KT 10SM FEW039 SCT050 17/14 A2983 RMK AO2 SLP088 T01720139 402500144
Pressure 29.79 in
Visibility 10.0 miles
Clouds Few 3900 ft
Scattered Clouds 5000 ft
Dew Point 49 °F
Humidity 89%
Rainfall 0.03 in
Snow Depth Not available.
UV 0 out of 12
Pollen 9.60 out of 12
Air Quality Not available.
Flu Activity Not available.
METAR KMLS 050653Z AUTO 02010KT 10SM FEW039 SCT050 17/14 A2983 RMK AO2 SLP088 T01720139 402500144

10-Day Weather Forecast

×

Almanac

Astronomy

Sep. 05, 2015 Rise Set
Actual Time
Civil Twilight
Nautical Twilight
Astronomical Twilight
Moon
Length of Visible Light
Length of Day
Tomorrow will be .
, % of the Moon is Illuminated

Today's Extremes

State Highs State Lows

Community

WunderPhotos

Upload Photos

1,852,430 photos uploaded!

WunderBlogs® & News

Nearby

Air Quality

  Air Quality AQ Index Pollutant
Not available.

Snow Depth

Station Depth Elevation

Earthquake Activity

City Distance Mag. Time & Date
Minimum magnitude displayed is 2.5.

Coastal Water Temperatures

Place Temperature

Stations

Nearby Weather Stations

Station Location Temp. Windchill Dew Point Humidity Wind Precip. Elev Updated Type
                   
Lake Wind Advisory
Statement as of 8:43 PM MDT on September 04, 2015

... Lake Wind Advisory in effect until noon MDT Saturday for Fort
Peck Lake...

The National Weather Service in Glasgow has issued a lake Wind
Advisory for Fort Peck Lake... which is in effect until noon MDT
Saturday.

* Timing... tonight through Saturday morning

* winds... from the east and northeast at 20 to 30 mph... becoming
erratic and stronger with passing overnight thunderstorms as
gusts up to 40 mph.

* Impacts... sudden and erratic shifts in wind speed and direction
near storms will make the open waters of the lake rough and
hazardous with high waves which may tip or swamp smaller craft.

Precautionary/preparedness actions...

Boaters should use extreme caution if venturing onto Fort Peck
Lake. For your personal safety... avoid the open waters. Stay
close to shore or around protected areas.



Http://weather.Gov/Glasgow